sensor_id;sensor_type;location;lat;lon;timestamp;P1;durP1;ratioP1;P2;durP2;ratioP2
46897;SDS011;32646;50.958;6.258;2023-04-24T00:01:32;3.80;;;1.70;;
46897;SDS011;32646;50.958;6.258;2023-04-24T00:03:58;3.58;;;1.48;;
46897;SDS011;32646;50.958;6.258;2023-04-24T00:06:25;5.43;;;1.65;;
46897;SDS011;32646;50.958;6.258;2023-04-24T00:08:52;3.63;;;1.70;;
46897;SDS011;32646;50.958;6.258;2023-04-24T00:11:19;4.05;;;1.42;;
46897;SDS011;32646;50.958;6.258;2023-04-24T00:13:45;4.90;;;1.65;;
46897;SDS011;32646;50.958;6.258;2023-04-24T00:16:12;4.10;;;1.77;;
46897;SDS011;32646;50.958;6.258;2023-04-24T00:18:38;5.25;;;2.03;;
46897;SDS011;32646;50.958;6.258;2023-04-24T00:21:05;3.90;;;1.63;;
46897;SDS011;32646;50.958;6.258;2023-04-24T00:23:31;4.55;;;2.10;;
46897;SDS011;32646;50.958;6.258;2023-04-24T00:25:58;6.78;;;2.47;;
46897;SDS011;32646;50.958;6.258;2023-04-24T00:28:24;5.25;;;2.20;;
46897;SDS011;32646;50.958;6.258;2023-04-24T00:30:51;5.60;;;2.40;;
46897;SDS011;32646;50.958;6.258;2023-04-24T00:33:17;6.00;;;2.97;;
46897;SDS011;32646;50.958;6.258;2023-04-24T00:35:44;5.70;;;3.15;;
46897;SDS011;32646;50.958;6.258;2023-04-24T00:38:10;6.80;;;3.67;;
46897;SDS011;32646;50.958;6.258;2023-04-24T00:40:37;7.68;;;3.97;;
46897;SDS011;32646;50.958;6.258;2023-04-24T00:43:03;6.80;;;3.17;;
46897;SDS011;32646;50.958;6.258;2023-04-24T00:45:30;11.05;;;3.28;;
46897;SDS011;32646;50.958;6.258;2023-04-24T00:47:57;8.18;;;3.08;;
46897;SDS011;32646;50.958;6.258;2023-04-24T00:50:24;8.73;;;3.65;;
46897;SDS011;32646;50.958;6.258;2023-04-24T00:52:51;8.05;;;3.08;;
46897;SDS011;32646;50.958;6.258;2023-04-24T00:55:18;6.75;;;3.67;;
46897;SDS011;32646;50.958;6.258;2023-04-24T00:57:45;5.35;;;2.80;;
46897;SDS011;32646;50.958;6.258;2023-04-24T01:00:13;5.25;;;3.15;;
46897;SDS011;32646;50.958;6.258;2023-04-24T01:02:41;6.70;;;3.58;;
46897;SDS011;32646;50.958;6.258;2023-04-24T01:05:10;7.72;;;4.07;;
46897;SDS011;32646;50.958;6.258;2023-04-24T01:07:39;10.13;;;4.00;;
46897;SDS011;32646;50.958;6.258;2023-04-24T01:10:07;8.45;;;4.32;;
46897;SDS011;32646;50.958;6.258;2023-04-24T01:12:34;7.97;;;4.15;;
46897;SDS011;32646;50.958;6.258;2023-04-24T01:15:01;9.32;;;4.43;;
46897;SDS011;32646;50.958;6.258;2023-04-24T01:17:27;6.38;;;3.13;;
46897;SDS011;32646;50.958;6.258;2023-04-24T01:19:54;7.35;;;3.70;;
46897;SDS011;32646;50.958;6.258;2023-04-24T01:22:21;6.05;;;3.25;;
46897;SDS011;32646;50.958;6.258;2023-04-24T01:24:48;9.75;;;5.05;;
46897;SDS011;32646;50.958;6.258;2023-04-24T01:27:15;8.70;;;4.05;;
46897;SDS011;32646;50.958;6.258;2023-04-24T01:29:41;10.45;;;4.97;;
46897;SDS011;32646;50.958;6.258;2023-04-24T01:32:08;9.45;;;4.07;;
46897;SDS011;32646;50.958;6.258;2023-04-24T01:34:35;8.63;;;4.10;;
46897;SDS011;32646;50.958;6.258;2023-04-24T01:37:02;11.10;;;5.63;;
46897;SDS011;32646;50.958;6.258;2023-04-24T01:39:28;7.00;;;4.82;;
46897;SDS011;32646;50.958;6.258;2023-04-24T01:41:55;11.52;;;5.38;;
46897;SDS011;32646;50.958;6.258;2023-04-24T01:44:22;9.77;;;4.38;;
46897;SDS011;32646;50.958;6.258;2023-04-24T01:46:49;15.55;;;5.28;;
46897;SDS011;32646;50.958;6.258;2023-04-24T01:49:16;10.38;;;5.05;;
46897;SDS011;32646;50.958;6.258;2023-04-24T01:51:43;12.30;;;5.13;;
46897;SDS011;32646;50.958;6.258;2023-04-24T01:54:09;13.38;;;5.63;;
46897;SDS011;32646;50.958;6.258;2023-04-24T01:56:36;13.25;;;4.50;;
46897;SDS011;32646;50.958;6.258;2023-04-24T01:59:07;12.68;;;5.50;;
46897;SDS011;32646;50.958;6.258;2023-04-24T02:01:36;13.02;;;5.47;;
46897;SDS011;32646;50.958;6.258;2023-04-24T02:04:04;8.45;;;5.05;;
46897;SDS011;32646;50.958;6.258;2023-04-24T02:06:32;9.40;;;4.95;;
46897;SDS011;32646;50.958;6.258;2023-04-24T02:08:59;7.32;;;4.43;;
46897;SDS011;32646;50.958;6.258;2023-04-24T02:11:26;11.35;;;4.93;;
46897;SDS011;32646;50.958;6.258;2023-04-24T02:13:53;11.55;;;6.07;;
46897;SDS011;32646;50.958;6.258;2023-04-24T02:16:19;8.23;;;4.18;;
46897;SDS011;32646;50.958;6.258;2023-04-24T02:18:46;11.40;;;5.45;;
46897;SDS011;32646;50.958;6.258;2023-04-24T02:21:12;8.82;;;4.50;;
46897;SDS011;32646;50.958;6.258;2023-04-24T02:23:39;10.30;;;5.07;;
46897;SDS011;32646;50.958;6.258;2023-04-24T02:26:06;10.10;;;5.25;;
46897;SDS011;32646;50.958;6.258;2023-04-24T02:28:32;9.63;;;4.88;;
46897;SDS011;32646;50.958;6.258;2023-04-24T02:30:59;9.45;;;4.55;;
46897;SDS011;32646;50.958;6.258;2023-04-24T02:33:25;10.32;;;5.53;;
46897;SDS011;32646;50.958;6.258;2023-04-24T02:35:52;11.88;;;5.25;;
46897;SDS011;32646;50.958;6.258;2023-04-24T02:38:18;11.35;;;4.97;;
46897;SDS011;32646;50.958;6.258;2023-04-24T02:40:45;8.05;;;4.20;;
46897;SDS011;32646;50.958;6.258;2023-04-24T02:43:11;8.70;;;4.25;;
46897;SDS011;32646;50.958;6.258;2023-04-24T02:45:38;12.13;;;5.40;;
46897;SDS011;32646;50.958;6.258;2023-04-24T02:48:04;12.20;;;5.30;;
46897;SDS011;32646;50.958;6.258;2023-04-24T02:50:31;11.77;;;5.30;;
46897;SDS011;32646;50.958;6.258;2023-04-24T02:52:57;10.82;;;5.18;;
46897;SDS011;32646;50.958;6.258;2023-04-24T02:55:24;13.85;;;5.80;;
46897;SDS011;32646;50.958;6.258;2023-04-24T02:57:51;10.30;;;5.20;;
46897;SDS011;32646;50.958;6.258;2023-04-24T03:00:17;9.77;;;5.13;;
46897;SDS011;32646;50.958;6.258;2023-04-24T03:02:44;11.10;;;5.68;;
46897;SDS011;32646;50.958;6.258;2023-04-24T03:05:11;10.65;;;4.85;;
46897;SDS011;32646;50.958;6.258;2023-04-24T03:07:37;8.80;;;4.38;;
46897;SDS011;32646;50.958;6.258;2023-04-24T03:10:04;8.82;;;5.20;;
46897;SDS011;32646;50.958;6.258;2023-04-24T03:12:31;10.13;;;5.60;;
46897;SDS011;32646;50.958;6.258;2023-04-24T03:14:58;10.00;;;4.95;;
46897;SDS011;32646;50.958;6.258;2023-04-24T03:17:25;10.60;;;4.95;;
46897;SDS011;32646;50.958;6.258;2023-04-24T03:19:51;16.95;;;5.40;;
46897;SDS011;32646;50.958;6.258;2023-04-24T03:22:18;8.05;;;3.97;;
46897;SDS011;32646;50.958;6.258;2023-04-24T03:24:44;11.98;;;5.70;;
46897;SDS011;32646;50.958;6.258;2023-04-24T03:27:11;11.50;;;5.43;;
46897;SDS011;32646;50.958;6.258;2023-04-24T03:29:37;15.20;;;6.20;;
46897;SDS011;32646;50.958;6.258;2023-04-24T03:32:04;12.07;;;5.95;;
46897;SDS011;32646;50.958;6.258;2023-04-24T03:34:30;10.93;;;4.57;;
46897;SDS011;32646;50.958;6.258;2023-04-24T03:36:57;11.60;;;5.95;;
46897;SDS011;32646;50.958;6.258;2023-04-24T03:39:23;12.00;;;5.68;;
46897;SDS011;32646;50.958;6.258;2023-04-24T03:41:50;11.98;;;5.72;;
46897;SDS011;32646;50.958;6.258;2023-04-24T03:44:16;10.75;;;5.63;;
46897;SDS011;32646;50.958;6.258;2023-04-24T03:46:43;11.20;;;5.60;;
46897;SDS011;32646;50.958;6.258;2023-04-24T03:49:09;11.30;;;5.93;;
46897;SDS011;32646;50.958;6.258;2023-04-24T03:51:36;11.25;;;5.40;;
46897;SDS011;32646;50.958;6.258;2023-04-24T03:54:02;12.60;;;5.10;;
46897;SDS011;32646;50.958;6.258;2023-04-24T03:56:29;12.05;;;5.75;;
46897;SDS011;32646;50.958;6.258;2023-04-24T03:58:55;10.07;;;5.28;;
46897;SDS011;32646;50.958;6.258;2023-04-24T04:01:22;11.27;;;5.00;;
46897;SDS011;32646;50.958;6.258;2023-04-24T04:03:48;9.55;;;5.07;;
46897;SDS011;32646;50.958;6.258;2023-04-24T04:06:15;11.23;;;4.75;;
46897;SDS011;32646;50.958;6.258;2023-04-24T04:08:42;10.20;;;4.53;;
46897;SDS011;32646;50.958;6.258;2023-04-24T04:11:08;8.68;;;3.92;;
46897;SDS011;32646;50.958;6.258;2023-04-24T04:13:35;10.60;;;4.95;;
46897;SDS011;32646;50.958;6.258;2023-04-24T04:16:01;8.05;;;3.90;;
46897;SDS011;32646;50.958;6.258;2023-04-24T04:18:28;8.10;;;4.95;;
46897;SDS011;32646;50.958;6.258;2023-04-24T04:20:54;9.68;;;4.78;;
46897;SDS011;32646;50.958;6.258;2023-04-24T04:23:21;12.52;;;5.13;;
46897;SDS011;32646;50.958;6.258;2023-04-24T04:25:48;11.13;;;4.22;;
46897;SDS011;32646;50.958;6.258;2023-04-24T04:28:14;9.13;;;4.35;;
46897;SDS011;32646;50.958;6.258;2023-04-24T04:30:41;9.88;;;4.97;;
46897;SDS011;32646;50.958;6.258;2023-04-24T04:33:07;9.25;;;4.28;;
46897;SDS011;32646;50.958;6.258;2023-04-24T04:35:34;10.20;;;4.85;;
46897;SDS011;32646;50.958;6.258;2023-04-24T04:38:00;11.82;;;5.57;;
46897;SDS011;32646;50.958;6.258;2023-04-24T04:40:27;9.48;;;4.40;;
46897;SDS011;32646;50.958;6.258;2023-04-24T04:42:53;12.95;;;4.68;;
46897;SDS011;32646;50.958;6.258;2023-04-24T04:45:20;7.03;;;3.65;;
46897;SDS011;32646;50.958;6.258;2023-04-24T04:47:47;12.30;;;5.60;;
46897;SDS011;32646;50.958;6.258;2023-04-24T04:50:14;9.20;;;4.93;;
46897;SDS011;32646;50.958;6.258;2023-04-24T04:52:40;7.15;;;4.22;;
46897;SDS011;32646;50.958;6.258;2023-04-24T04:55:07;8.35;;;3.78;;
46897;SDS011;32646;50.958;6.258;2023-04-24T04:57:34;11.07;;;5.53;;
46897;SDS011;32646;50.958;6.258;2023-04-24T05:00:00;8.02;;;4.57;;
46897;SDS011;32646;50.958;6.258;2023-04-24T05:02:27;8.55;;;4.68;;
46897;SDS011;32646;50.958;6.258;2023-04-24T05:04:54;8.68;;;4.55;;
46897;SDS011;32646;50.958;6.258;2023-04-24T05:07:21;8.20;;;4.78;;
46897;SDS011;32646;50.958;6.258;2023-04-24T05:09:47;6.55;;;3.40;;
46897;SDS011;32646;50.958;6.258;2023-04-24T05:12:14;6.47;;;3.58;;
46897;SDS011;32646;50.958;6.258;2023-04-24T05:14:40;9.35;;;4.65;;
46897;SDS011;32646;50.958;6.258;2023-04-24T05:17:07;9.55;;;4.28;;
46897;SDS011;32646;50.958;6.258;2023-04-24T05:19:33;11.98;;;4.90;;
46897;SDS011;32646;50.958;6.258;2023-04-24T05:22:00;8.38;;;4.22;;
46897;SDS011;32646;50.958;6.258;2023-04-24T05:24:26;9.93;;;5.00;;
46897;SDS011;32646;50.958;6.258;2023-04-24T05:26:53;7.10;;;3.63;;
46897;SDS011;32646;50.958;6.258;2023-04-24T05:29:19;7.93;;;4.05;;
46897;SDS011;32646;50.958;6.258;2023-04-24T05:31:46;6.57;;;2.88;;
46897;SDS011;32646;50.958;6.258;2023-04-24T05:34:13;7.05;;;3.65;;
46897;SDS011;32646;50.958;6.258;2023-04-24T05:36:39;6.15;;;3.08;;
46897;SDS011;32646;50.958;6.258;2023-04-24T05:39:06;7.05;;;2.72;;
46897;SDS011;32646;50.958;6.258;2023-04-24T05:41:33;6.82;;;3.35;;
46897;SDS011;32646;50.958;6.258;2023-04-24T05:44:00;6.82;;;3.58;;
46897;SDS011;32646;50.958;6.258;2023-04-24T05:46:27;8.07;;;3.17;;
46897;SDS011;32646;50.958;6.258;2023-04-24T05:48:53;8.48;;;4.20;;
46897;SDS011;32646;50.958;6.258;2023-04-24T05:51:20;7.88;;;4.00;;
46897;SDS011;32646;50.958;6.258;2023-04-24T05:53:46;6.75;;;3.25;;
46897;SDS011;32646;50.958;6.258;2023-04-24T05:56:13;5.32;;;2.78;;
46897;SDS011;32646;50.958;6.258;2023-04-24T05:58:39;6.63;;;3.10;;
46897;SDS011;32646;50.958;6.258;2023-04-24T06:01:06;6.93;;;3.25;;
46897;SDS011;32646;50.958;6.258;2023-04-24T06:03:32;7.85;;;3.95;;
46897;SDS011;32646;50.958;6.258;2023-04-24T06:05:59;9.65;;;3.97;;
46897;SDS011;32646;50.958;6.258;2023-04-24T06:08:26;8.77;;;3.85;;
46897;SDS011;32646;50.958;6.258;2023-04-24T06:10:52;5.45;;;2.80;;
46897;SDS011;32646;50.958;6.258;2023-04-24T06:13:19;6.13;;;2.70;;
46897;SDS011;32646;50.958;6.258;2023-04-24T06:15:45;6.57;;;3.58;;
46897;SDS011;32646;50.958;6.258;2023-04-24T06:18:12;6.07;;;2.78;;
46897;SDS011;32646;50.958;6.258;2023-04-24T06:20:38;6.25;;;2.63;;
46897;SDS011;32646;50.958;6.258;2023-04-24T06:23:05;5.50;;;2.47;;
46897;SDS011;32646;50.958;6.258;2023-04-24T06:25:31;6.20;;;2.58;;
46897;SDS011;32646;50.958;6.258;2023-04-24T06:27:58;5.07;;;2.85;;
46897;SDS011;32646;50.958;6.258;2023-04-24T06:30:25;4.38;;;2.33;;
46897;SDS011;32646;50.958;6.258;2023-04-24T06:32:52;4.50;;;2.42;;
46897;SDS011;32646;50.958;6.258;2023-04-24T06:35:18;4.72;;;2.22;;
46897;SDS011;32646;50.958;6.258;2023-04-24T06:37:45;6.05;;;2.50;;
46897;SDS011;32646;50.958;6.258;2023-04-24T06:40:12;7.72;;;2.92;;
46897;SDS011;32646;50.958;6.258;2023-04-24T06:42:38;6.10;;;3.22;;
46897;SDS011;32646;50.958;6.258;2023-04-24T06:45:05;6.53;;;2.95;;
46897;SDS011;32646;50.958;6.258;2023-04-24T06:47:32;8.20;;;3.80;;
46897;SDS011;32646;50.958;6.258;2023-04-24T06:49:59;5.80;;;2.78;;
46897;SDS011;32646;50.958;6.258;2023-04-24T06:52:25;6.88;;;2.55;;
46897;SDS011;32646;50.958;6.258;2023-04-24T06:54:52;7.13;;;3.25;;
46897;SDS011;32646;50.958;6.258;2023-04-24T06:57:25;7.57;;;3.17;;
46897;SDS011;32646;50.958;6.258;2023-04-24T06:59:51;6.47;;;2.65;;
46897;SDS011;32646;50.958;6.258;2023-04-24T07:02:18;7.20;;;2.80;;
46897;SDS011;32646;50.958;6.258;2023-04-24T07:04:45;5.05;;;2.67;;
46897;SDS011;32646;50.958;6.258;2023-04-24T07:07:11;3.90;;;2.03;;
46897;SDS011;32646;50.958;6.258;2023-04-24T07:09:38;4.97;;;2.20;;
46897;SDS011;32646;50.958;6.258;2023-04-24T07:12:05;5.13;;;2.42;;
46897;SDS011;32646;50.958;6.258;2023-04-24T07:14:31;5.97;;;2.40;;
46897;SDS011;32646;50.958;6.258;2023-04-24T07:16:58;5.45;;;2.58;;
46897;SDS011;32646;50.958;6.258;2023-04-24T07:19:24;4.60;;;1.98;;
46897;SDS011;32646;50.958;6.258;2023-04-24T07:21:51;5.13;;;2.40;;
46897;SDS011;32646;50.958;6.258;2023-04-24T07:24:17;4.97;;;2.22;;
46897;SDS011;32646;50.958;6.258;2023-04-24T07:26:47;5.05;;;2.50;;
46897;SDS011;32646;50.958;6.258;2023-04-24T07:29:13;6.40;;;2.35;;
46897;SDS011;32646;50.958;6.258;2023-04-24T07:31:40;5.45;;;2.33;;
46897;SDS011;32646;50.958;6.258;2023-04-24T07:34:07;6.18;;;2.85;;
46897;SDS011;32646;50.958;6.258;2023-04-24T07:36:33;6.18;;;2.65;;
46897;SDS011;32646;50.958;6.258;2023-04-24T07:39:00;5.10;;;2.30;;
46897;SDS011;32646;50.958;6.258;2023-04-24T07:41:26;4.80;;;2.78;;
46897;SDS011;32646;50.958;6.258;2023-04-24T07:43:53;4.60;;;2.40;;
46897;SDS011;32646;50.958;6.258;2023-04-24T07:46:20;6.15;;;2.70;;
46897;SDS011;32646;50.958;6.258;2023-04-24T07:48:46;5.63;;;2.10;;
46897;SDS011;32646;50.958;6.258;2023-04-24T07:51:16;3.47;;;1.50;;
46897;SDS011;32646;50.958;6.258;2023-04-24T07:53:43;6.88;;;2.20;;
46897;SDS011;32646;50.958;6.258;2023-04-24T07:56:09;5.95;;;2.67;;
46897;SDS011;32646;50.958;6.258;2023-04-24T07:58:36;5.65;;;2.85;;
46897;SDS011;32646;50.958;6.258;2023-04-24T08:01:03;4.45;;;2.00;;
46897;SDS011;32646;50.958;6.258;2023-04-24T08:03:29;7.13;;;2.95;;
46897;SDS011;32646;50.958;6.258;2023-04-24T08:05:56;6.05;;;3.10;;
46897;SDS011;32646;50.958;6.258;2023-04-24T08:08:23;6.93;;;2.72;;
46897;SDS011;32646;50.958;6.258;2023-04-24T08:10:51;8.77;;;2.78;;
46897;SDS011;32646;50.958;6.258;2023-04-24T08:13:17;6.50;;;3.05;;
46897;SDS011;32646;50.958;6.258;2023-04-24T08:15:44;8.10;;;3.58;;
46897;SDS011;32646;50.958;6.258;2023-04-24T08:18:10;5.93;;;3.40;;
46897;SDS011;32646;50.958;6.258;2023-04-24T08:20:37;6.93;;;3.58;;
46897;SDS011;32646;50.958;6.258;2023-04-24T08:23:03;8.95;;;4.45;;
46897;SDS011;32646;50.958;6.258;2023-04-24T08:25:30;9.27;;;4.63;;
46897;SDS011;32646;50.958;6.258;2023-04-24T08:27:56;6.78;;;3.08;;
46897;SDS011;32646;50.958;6.258;2023-04-24T08:30:23;10.88;;;4.65;;
46897;SDS011;32646;50.958;6.258;2023-04-24T08:32:49;9.85;;;4.13;;
46897;SDS011;32646;50.958;6.258;2023-04-24T08:35:16;9.38;;;5.07;;
46897;SDS011;32646;50.958;6.258;2023-04-24T08:37:43;8.32;;;3.65;;
46897;SDS011;32646;50.958;6.258;2023-04-24T08:40:11;9.15;;;3.83;;
46897;SDS011;32646;50.958;6.258;2023-04-24T08:42:41;11.82;;;4.65;;
46897;SDS011;32646;50.958;6.258;2023-04-24T08:45:11;11.38;;;4.80;;
46897;SDS011;32646;50.958;6.258;2023-04-24T08:47:39;7.53;;;3.80;;
46897;SDS011;32646;50.958;6.258;2023-04-24T08:50:07;10.65;;;4.13;;
46897;SDS011;32646;50.958;6.258;2023-04-24T08:52:34;10.15;;;4.30;;
46897;SDS011;32646;50.958;6.258;2023-04-24T08:55:01;7.57;;;3.75;;
46897;SDS011;32646;50.958;6.258;2023-04-24T08:57:28;9.93;;;4.18;;
46897;SDS011;32646;50.958;6.258;2023-04-24T08:59:55;8.32;;;4.13;;
46897;SDS011;32646;50.958;6.258;2023-04-24T09:02:24;10.45;;;4.32;;
46897;SDS011;32646;50.958;6.258;2023-04-24T09:04:51;11.10;;;4.85;;
46897;SDS011;32646;50.958;6.258;2023-04-24T09:07:19;10.43;;;3.95;;
46897;SDS011;32646;50.958;6.258;2023-04-24T09:09:47;8.07;;;3.90;;
46897;SDS011;32646;50.958;6.258;2023-04-24T09:12:16;7.00;;;3.33;;
46897;SDS011;32646;50.958;6.258;2023-04-24T09:14:44;10.15;;;3.92;;
46897;SDS011;32646;50.958;6.258;2023-04-24T09:17:11;9.18;;;4.32;;
46897;SDS011;32646;50.958;6.258;2023-04-24T09:19:38;8.43;;;3.63;;
46897;SDS011;32646;50.958;6.258;2023-04-24T09:22:06;5.03;;;2.60;;
46897;SDS011;32646;50.958;6.258;2023-04-24T09:24:34;7.30;;;3.47;;
46897;SDS011;32646;50.958;6.258;2023-04-24T09:27:00;8.40;;;3.00;;
46897;SDS011;32646;50.958;6.258;2023-04-24T09:29:27;8.07;;;3.58;;
46897;SDS011;32646;50.958;6.258;2023-04-24T09:31:54;8.25;;;3.50;;
46897;SDS011;32646;50.958;6.258;2023-04-24T09:34:24;8.18;;;3.85;;
46897;SDS011;32646;50.958;6.258;2023-04-24T09:36:53;7.60;;;3.05;;
46897;SDS011;32646;50.958;6.258;2023-04-24T09:39:20;8.48;;;3.75;;
46897;SDS011;32646;50.958;6.258;2023-04-24T09:41:48;9.30;;;3.90;;
46897;SDS011;32646;50.958;6.258;2023-04-24T09:44:16;10.27;;;3.65;;
46897;SDS011;32646;50.958;6.258;2023-04-24T09:46:45;7.45;;;3.38;;
46897;SDS011;32646;50.958;6.258;2023-04-24T09:49:15;7.72;;;3.78;;
46897;SDS011;32646;50.958;6.258;2023-04-24T09:51:46;7.57;;;3.85;;
46897;SDS011;32646;50.958;6.258;2023-04-24T09:54:16;7.63;;;3.70;;
46897;SDS011;32646;50.958;6.258;2023-04-24T09:56:44;7.90;;;4.50;;
46897;SDS011;32646;50.958;6.258;2023-04-24T09:59:13;12.65;;;3.40;;
46897;SDS011;32646;50.958;6.258;2023-04-24T10:01:41;7.15;;;3.50;;
46897;SDS011;32646;50.958;6.258;2023-04-24T10:04:14;9.48;;;3.63;;
46897;SDS011;32646;50.958;6.258;2023-04-24T10:06:42;8.43;;;3.35;;
46897;SDS011;32646;50.958;6.258;2023-04-24T10:09:09;7.57;;;2.83;;
46897;SDS011;32646;50.958;6.258;2023-04-24T10:11:36;10.98;;;3.83;;
46897;SDS011;32646;50.958;6.258;2023-04-24T10:14:03;7.80;;;4.00;;
46897;SDS011;32646;50.958;6.258;2023-04-24T10:16:31;10.35;;;4.40;;
46897;SDS011;32646;50.958;6.258;2023-04-24T10:18:59;10.15;;;3.97;;
46897;SDS011;32646;50.958;6.258;2023-04-24T10:21:26;9.55;;;4.35;;
46897;SDS011;32646;50.958;6.258;2023-04-24T10:23:52;11.77;;;4.90;;
46897;SDS011;32646;50.958;6.258;2023-04-24T10:26:19;10.48;;;4.28;;
46897;SDS011;32646;50.958;6.258;2023-04-24T10:28:47;11.63;;;5.25;;
46897;SDS011;32646;50.958;6.258;2023-04-24T10:31:14;11.00;;;5.00;;
46897;SDS011;32646;50.958;6.258;2023-04-24T10:33:41;10.05;;;4.55;;
46897;SDS011;32646;50.958;6.258;2023-04-24T10:36:09;9.73;;;4.13;;
46897;SDS011;32646;50.958;6.258;2023-04-24T10:38:37;12.90;;;4.03;;
46897;SDS011;32646;50.958;6.258;2023-04-24T10:41:09;10.75;;;3.83;;
46897;SDS011;32646;50.958;6.258;2023-04-24T10:43:39;10.73;;;4.47;;
46897;SDS011;32646;50.958;6.258;2023-04-24T10:46:05;9.65;;;4.60;;
46897;SDS011;32646;50.958;6.258;2023-04-24T10:48:33;7.10;;;3.55;;
46897;SDS011;32646;50.958;6.258;2023-04-24T10:50:59;11.27;;;4.50;;
46897;SDS011;32646;50.958;6.258;2023-04-24T10:53:28;7.72;;;3.47;;
46897;SDS011;32646;50.958;6.258;2023-04-24T10:56:02;5.78;;;2.90;;
46897;SDS011;32646;50.958;6.258;2023-04-24T11:01:04;7.93;;;3.95;;
46897;SDS011;32646;50.958;6.258;2023-04-24T11:03:31;10.40;;;4.22;;
46897;SDS011;32646;50.958;6.258;2023-04-24T11:06:03;7.57;;;4.13;;
46897;SDS011;32646;50.958;6.258;2023-04-24T11:08:31;9.63;;;3.92;;
46897;SDS011;32646;50.958;6.258;2023-04-24T11:16:41;9.82;;;4.05;;
46897;SDS011;32646;50.958;6.258;2023-04-24T11:19:18;7.25;;;3.35;;
46897;SDS011;32646;50.958;6.258;2023-04-24T11:21:48;12.38;;;4.07;;
46897;SDS011;32646;50.958;6.258;2023-04-24T11:24:27;10.13;;;4.18;;
46897;SDS011;32646;50.958;6.258;2023-04-24T11:27:13;8.68;;;4.20;;
46897;SDS011;32646;50.958;6.258;2023-04-24T11:29:49;11.57;;;3.83;;
46897;SDS011;32646;50.958;6.258;2023-04-24T11:32:29;11.40;;;3.85;;
46897;SDS011;32646;50.958;6.258;2023-04-24T11:35:06;10.82;;;4.03;;
46897;SDS011;32646;50.958;6.258;2023-04-24T11:40:03;7.18;;;3.55;;
46897;SDS011;32646;50.958;6.258;2023-04-24T11:42:35;7.60;;;3.33;;
46897;SDS011;32646;50.958;6.258;2023-04-24T11:45:09;7.25;;;3.95;;
46897;SDS011;32646;50.958;6.258;2023-04-24T11:47:38;7.72;;;3.70;;
46897;SDS011;32646;50.958;6.258;2023-04-24T11:50:06;7.95;;;4.25;;
46897;SDS011;32646;50.958;6.258;2023-04-24T11:52:38;7.82;;;3.20;;
46897;SDS011;32646;50.958;6.258;2023-04-24T11:55:22;5.78;;;2.85;;
46897;SDS011;32646;50.958;6.258;2023-04-24T11:57:50;7.95;;;3.65;;
46897;SDS011;32646;50.958;6.258;2023-04-24T12:00:19;5.82;;;2.97;;
46897;SDS011;32646;50.958;6.258;2023-04-24T12:02:47;8.63;;;2.83;;
46897;SDS011;32646;50.958;6.258;2023-04-24T12:07:52;6.65;;;2.10;;
46897;SDS011;32646;50.958;6.258;2023-04-24T12:10:20;8.40;;;3.00;;
46897;SDS011;32646;50.958;6.258;2023-04-24T12:12:47;5.93;;;2.40;;
46897;SDS011;32646;50.958;6.258;2023-04-24T12:15:15;6.03;;;2.38;;
46897;SDS011;32646;50.958;6.258;2023-04-24T12:17:42;7.85;;;3.03;;
46897;SDS011;32646;50.958;6.258;2023-04-24T12:20:08;9.25;;;3.40;;
46897;SDS011;32646;50.958;6.258;2023-04-24T12:22:50;9.05;;;2.88;;
46897;SDS011;32646;50.958;6.258;2023-04-24T12:25:23;10.90;;;3.03;;
46897;SDS011;32646;50.958;6.258;2023-04-24T12:27:54;5.68;;;2.60;;
46897;SDS011;32646;50.958;6.258;2023-04-24T12:30:43;8.75;;;3.75;;
46897;SDS011;32646;50.958;6.258;2023-04-24T12:33:12;7.38;;;3.22;;
46897;SDS011;32646;50.958;6.258;2023-04-24T12:35:43;8.48;;;3.95;;
46897;SDS011;32646;50.958;6.258;2023-04-24T12:38:10;6.95;;;3.25;;
46897;SDS011;32646;50.958;6.258;2023-04-24T12:40:38;12.35;;;3.97;;
46897;SDS011;32646;50.958;6.258;2023-04-24T12:43:18;8.20;;;3.85;;
46897;SDS011;32646;50.958;6.258;2023-04-24T12:45:46;10.63;;;4.15;;
46897;SDS011;32646;50.958;6.258;2023-04-24T12:48:13;11.05;;;4.10;;
46897;SDS011;32646;50.958;6.258;2023-04-24T12:50:40;10.02;;;3.80;;
46897;SDS011;32646;50.958;6.258;2023-04-24T12:53:10;9.70;;;4.28;;
46897;SDS011;32646;50.958;6.258;2023-04-24T12:55:37;11.60;;;4.20;;
46897;SDS011;32646;50.958;6.258;2023-04-24T12:58:03;8.40;;;3.92;;
46897;SDS011;32646;50.958;6.258;2023-04-24T13:00:30;9.23;;;4.20;;
46897;SDS011;32646;50.958;6.258;2023-04-24T13:02:56;10.50;;;4.05;;
46897;SDS011;32646;50.958;6.258;2023-04-24T13:05:23;10.00;;;4.95;;
46897;SDS011;32646;50.958;6.258;2023-04-24T13:07:50;7.18;;;4.35;;
46897;SDS011;32646;50.958;6.258;2023-04-24T13:10:17;9.40;;;4.28;;
46897;SDS011;32646;50.958;6.258;2023-04-24T13:12:44;7.10;;;4.03;;
46897;SDS011;32646;50.958;6.258;2023-04-24T13:15:10;9.10;;;4.13;;
46897;SDS011;32646;50.958;6.258;2023-04-24T13:17:37;6.45;;;2.70;;
46897;SDS011;32646;50.958;6.258;2023-04-24T13:20:04;7.35;;;3.13;;
46897;SDS011;32646;50.958;6.258;2023-04-24T13:22:31;8.43;;;2.72;;
46897;SDS011;32646;50.958;6.258;2023-04-24T13:24:57;8.63;;;2.53;;
46897;SDS011;32646;50.958;6.258;2023-04-24T13:27:24;7.13;;;2.80;;
46897;SDS011;32646;50.958;6.258;2023-04-24T13:29:50;4.63;;;2.35;;
46897;SDS011;32646;50.958;6.258;2023-04-24T13:32:17;8.73;;;2.72;;
46897;SDS011;32646;50.958;6.258;2023-04-24T13:34:44;5.53;;;2.78;;
46897;SDS011;32646;50.958;6.258;2023-04-24T13:37:10;8.55;;;2.70;;
46897;SDS011;32646;50.958;6.258;2023-04-24T13:39:37;4.18;;;2.13;;
46897;SDS011;32646;50.958;6.258;2023-04-24T13:42:03;6.18;;;2.60;;
46897;SDS011;32646;50.958;6.258;2023-04-24T13:44:30;6.88;;;2.67;;
46897;SDS011;32646;50.958;6.258;2023-04-24T13:46:57;7.10;;;2.38;;
46897;SDS011;32646;50.958;6.258;2023-04-24T13:49:24;8.77;;;3.05;;
46897;SDS011;32646;50.958;6.258;2023-04-24T13:51:51;7.30;;;3.03;;
46897;SDS011;32646;50.958;6.258;2023-04-24T13:54:19;8.10;;;3.45;;
46897;SDS011;32646;50.958;6.258;2023-04-24T13:56:46;6.90;;;3.40;;
46897;SDS011;32646;50.958;6.258;2023-04-24T13:59:12;8.10;;;2.92;;
46897;SDS011;32646;50.958;6.258;2023-04-24T14:01:39;9.32;;;3.45;;
46897;SDS011;32646;50.958;6.258;2023-04-24T14:04:05;7.43;;;3.60;;
46897;SDS011;32646;50.958;6.258;2023-04-24T14:06:32;8.88;;;3.90;;
46897;SDS011;32646;50.958;6.258;2023-04-24T14:08:59;7.45;;;3.90;;
46897;SDS011;32646;50.958;6.258;2023-04-24T14:11:25;8.50;;;4.38;;
46897;SDS011;32646;50.958;6.258;2023-04-24T14:13:53;10.38;;;4.00;;
46897;SDS011;32646;50.958;6.258;2023-04-24T14:16:20;8.48;;;3.75;;
46897;SDS011;32646;50.958;6.258;2023-04-24T14:18:47;5.70;;;3.35;;
46897;SDS011;32646;50.958;6.258;2023-04-24T14:21:13;6.43;;;3.28;;
46897;SDS011;32646;50.958;6.258;2023-04-24T14:23:40;7.85;;;3.47;;
46897;SDS011;32646;50.958;6.258;2023-04-24T14:26:06;6.35;;;2.97;;
46897;SDS011;32646;50.958;6.258;2023-04-24T14:28:33;5.78;;;3.25;;
46897;SDS011;32646;50.958;6.258;2023-04-24T14:31:00;6.32;;;3.33;;
46897;SDS011;32646;50.958;6.258;2023-04-24T14:33:26;5.93;;;3.03;;
46897;SDS011;32646;50.958;6.258;2023-04-24T14:35:53;7.80;;;3.45;;
46897;SDS011;32646;50.958;6.258;2023-04-24T14:38:19;7.07;;;3.47;;
46897;SDS011;32646;50.958;6.258;2023-04-24T14:40:46;10.50;;;3.40;;
46897;SDS011;32646;50.958;6.258;2023-04-24T14:43:16;7.30;;;3.63;;
46897;SDS011;32646;50.958;6.258;2023-04-24T14:45:42;8.00;;;3.72;;
46897;SDS011;32646;50.958;6.258;2023-04-24T14:48:09;8.35;;;3.40;;
46897;SDS011;32646;50.958;6.258;2023-04-24T14:50:35;6.00;;;3.40;;
46897;SDS011;32646;50.958;6.258;2023-04-24T14:53:02;6.93;;;4.35;;
46897;SDS011;32646;50.958;6.258;2023-04-24T14:55:28;6.72;;;3.70;;
46897;SDS011;32646;50.958;6.258;2023-04-24T14:57:55;7.32;;;3.80;;